createdAt,value
2019-02-28T00:00:55.491Z,58.76
2019-02-28T00:15:50.578Z,59.03
2019-02-28T00:30:50.436Z,59.19
2019-02-28T00:45:51.835Z,59.31
2019-02-28T01:00:51.788Z,59.59
2019-02-28T01:15:51.129Z,60.49
2019-02-28T01:30:51.604Z,61.33
2019-02-28T01:45:50.459Z,62.01
2019-02-28T02:00:50.419Z,62.31
2019-02-28T02:15:52.102Z,62.83
2019-02-28T02:30:52.682Z,63.16
2019-02-28T02:45:50.614Z,63.07
2019-02-28T03:00:53.608Z,62.78
2019-02-28T03:15:50.430Z,63.10
2019-02-28T03:30:50.863Z,63.23
2019-02-28T03:45:50.732Z,62.13
2019-02-28T04:00:54.338Z,62.37
2019-02-28T04:16:07.404Z,62.10
2019-02-28T04:30:59.715Z,62.10
2019-02-28T04:45:51.104Z,62.45
2019-02-28T05:00:57.338Z,62.13
2019-02-28T05:15:51.576Z,61.93
2019-02-28T05:30:53.681Z,61.20
2019-02-28T05:45:51.089Z,59.01
2019-02-28T06:00:50.991Z,52.00
2019-02-28T06:15:51.396Z,43.47
2019-02-28T06:30:51.349Z,38.77
2019-02-28T06:45:51.298Z,35.73
2019-02-28T07:00:51.184Z,34.22
2019-02-28T07:15:51.625Z,33.01
2019-02-28T07:30:51.443Z,32.40
2019-02-28T09:15:51.439Z,29.78
2019-02-28T09:45:50.818Z,28.60
2019-02-28T10:00:51.740Z,28.91
2019-02-28T10:15:50.973Z,28.77
2019-02-28T10:30:52.078Z,28.79
2019-02-28T10:45:50.951Z,27.79
2019-02-28T11:00:53.175Z,31.06
2019-02-28T11:15:54.163Z,28.69
2019-02-28T11:30:52.995Z,28.86
2019-02-28T12:00:51.463Z,27.92
2019-02-28T13:15:51.020Z,27.73
2019-02-28T13:30:52.197Z,27.61
2019-02-28T13:45:55.943Z,26.81
2019-02-28T14:00:51.739Z,27.77
2019-02-28T14:15:53.320Z,28.30
2019-02-28T14:30:54.434Z,27.53
2019-02-28T14:45:51.004Z,28.17
2019-02-28T15:00:52.812Z,28.10
2019-02-28T15:15:53.201Z,26.37
2019-02-28T15:30:51.255Z,26.32
2019-02-28T15:45:51.181Z,26.05
2019-02-28T16:00:53.798Z,26.50
2019-02-28T16:15:51.400Z,27.38
2019-02-28T16:30:54.606Z,28.20
2019-02-28T16:45:51.840Z,29.10
2019-02-28T17:00:52.449Z,29.35
2019-02-28T17:16:01.379Z,29.30
2019-02-28T17:45:51.711Z,30.01
2019-02-28T18:45:53.569Z,31.07
2019-02-28T19:00:51.816Z,30.67
2019-02-28T19:15:53.883Z,30.32
2019-02-28T19:30:54.204Z,30.85
2019-02-28T19:45:54.326Z,30.16
2019-02-28T20:00:53.464Z,30.56
2019-02-28T20:15:59.211Z,31.28
2019-02-28T20:30:53.099Z,30.96
2019-02-28T20:45:52.112Z,30.39
2019-02-28T21:15:51.163Z,30.05
2019-02-28T21:30:51.248Z,30.12
2019-02-28T21:45:51.062Z,34.40
2019-02-28T22:00:52.948Z,39.06
2019-02-28T22:15:51.655Z,40.65
2019-02-28T22:45:52.945Z,42.62
2019-02-28T23:00:59.755Z,42.82
2019-02-28T23:15:51.221Z,43.47
2019-02-28T23:45:51.048Z,45.08
